createdAt,value
2023-02-26T00:01:17.850Z,1022.2
2023-02-26T00:02:28.871Z,1022.2
2023-02-26T00:04:30.416Z,1022.1
2023-02-26T00:05:52.201Z,1022.1
2023-02-26T00:06:28.832Z,1022.1
2023-02-26T00:23:09.181Z,1022.2
2023-02-26T00:23:55.325Z,1022.1
2023-02-26T00:25:55.312Z,1022.1
2023-02-26T00:27:55.476Z,1022.2
2023-02-26T00:29:55.360Z,1022.2
2023-02-26T00:31:55.584Z,1022.1
2023-02-26T00:33:55.335Z,1022.1
2023-02-26T00:35:55.312Z,1022.2
2023-02-26T00:37:55.310Z,1022.1
2023-02-26T00:39:55.275Z,1022.1
2023-02-26T00:41:55.394Z,1022.1
2023-02-26T00:43:55.357Z,1022.1
2023-02-26T00:45:55.365Z,1022.1
2023-02-26T00:47:55.318Z,1022.1
2023-02-26T00:49:55.441Z,1022.1
2023-02-26T00:51:55.401Z,1022.1
2023-02-26T00:53:55.529Z,1022.1
2023-02-26T00:55:55.381Z,1022.1
2023-02-26T00:57:55.356Z,1022.1
2023-02-26T00:59:55.354Z,1022.1
2023-02-26T01:01:55.317Z,1022.1
2023-02-26T01:03:55.518Z,1022.1
2023-02-26T01:05:55.482Z,1021.9
2023-02-26T01:07:55.635Z,1021.8
2023-02-26T01:09:59.860Z,1021.9
2023-02-26T01:11:56.348Z,1021.9
2023-02-26T01:13:55.249Z,1021.9
2023-02-26T01:15:55.466Z,1021.9
2023-02-26T01:17:55.330Z,1021.9
2023-02-26T01:19:55.225Z,1021.9
2023-02-26T01:21:55.290Z,1021.9
2023-02-26T01:23:55.337Z,1022
2023-02-26T01:25:55.282Z,1021.9
2023-02-26T01:27:55.295Z,1021.9
2023-02-26T01:29:55.266Z,1021.9
2023-02-26T01:31:55.443Z,1021.9
2023-02-26T01:33:55.196Z,1021.8
2023-02-26T01:35:55.198Z,1021.9
2023-02-26T01:37:55.179Z,1021.9
2023-02-26T01:39:55.192Z,1021.8
2023-02-26T01:41:55.216Z,1021.8
2023-02-26T01:43:55.470Z,1021.8
2023-02-26T01:45:56.617Z,1021.8
2023-02-26T01:47:55.240Z,1021.8
2023-02-26T01:49:55.242Z,1021.8
2023-02-26T01:51:55.229Z,1021.7
2023-02-26T01:53:55.239Z,1021.8
2023-02-26T01:55:55.209Z,1021.7
2023-02-26T01:57:55.227Z,1021.7
2023-02-26T01:59:55.311Z,1021.6
2023-02-26T02:01:55.167Z,1021.7
2023-02-26T02:03:55.308Z,1021.7
2023-02-26T02:05:55.192Z,1021.8
2023-02-26T02:07:55.307Z,1021.8
2023-02-26T02:09:55.242Z,1021.8
2023-02-26T02:11:55.179Z,1021.8
2023-02-26T02:13:55.148Z,1021.8
2023-02-26T02:15:55.238Z,1021.7
2023-02-26T02:17:55.172Z,1021.7
2023-02-26T02:19:55.157Z,1021.7
2023-02-26T02:21:56.396Z,1021.7
2023-02-26T02:23:57.712Z,1021.7
2023-02-26T02:25:55.298Z,1021.7
2023-02-26T02:27:55.240Z,1021.7
2023-02-26T02:29:55.177Z,1021.7
2023-02-26T02:31:55.288Z,1021.7
2023-02-26T02:33:55.144Z,1021.6
2023-02-26T02:35:55.136Z,1021.6
2023-02-26T02:37:55.127Z,1021.7
2023-02-26T02:39:55.119Z,1021.6
2023-02-26T02:41:55.264Z,1021.6
2023-02-26T02:43:55.105Z,1021.7
2023-02-26T02:45:55.266Z,1021.7
2023-02-26T02:47:55.186Z,1021.6
2023-02-26T02:49:55.178Z,1021.7
2023-02-26T02:51:55.128Z,1021.7
2023-02-26T02:53:55.172Z,1021.7
2023-02-26T02:55:55.108Z,1021.7
2023-02-26T02:57:55.103Z,1021.7
2023-02-26T02:59:55.116Z,1021.7
2023-02-26T03:01:55.116Z,1021.8
2023-02-26T03:03:55.074Z,1021.8
2023-02-26T03:05:55.071Z,1021.7
2023-02-26T03:07:55.225Z,1021.8
2023-02-26T03:09:55.175Z,1021.8
2023-02-26T03:11:55.102Z,1021.9
2023-02-26T03:13:55.096Z,1021.9
2023-02-26T03:15:56.252Z,1021.8
2023-02-26T03:17:56.246Z,1021.9
2023-02-26T03:19:55.182Z,1021.9
2023-02-26T03:21:55.068Z,1021.9
2023-02-26T03:23:55.070Z,1021.8
2023-02-26T03:25:55.100Z,1021.8
2023-02-26T03:27:55.182Z,1021.8
2023-02-26T03:29:55.066Z,1021.7
2023-02-26T03:31:55.147Z,1021.7
2023-02-26T03:33:55.061Z,1021.8
2023-02-26T03:35:55.066Z,1021.8
2023-02-26T03:37:55.200Z,1021.7
2023-02-26T03:39:55.083Z,1021.7
2023-02-26T03:41:55.125Z,1021.7
2023-02-26T03:43:55.107Z,1021.7
2023-02-26T03:45:55.228Z,1021.7
2023-02-26T03:47:57.520Z,1021.7
2023-02-26T03:49:55.071Z,1021.7
2023-02-26T03:51:55.084Z,1021.7
2023-02-26T03:53:55.092Z,1021.6
2023-02-26T03:55:55.019Z,1021.6
2023-02-26T03:57:55.199Z,1021.6
2023-02-26T03:59:55.083Z,1021.6
2023-02-26T04:01:55.041Z,1021.6
2023-02-26T04:03:55.130Z,1021.6
2023-02-26T04:05:56.460Z,1021.6
2023-02-26T04:07:55.195Z,1021.6
2023-02-26T04:09:55.165Z,1021.6
2023-02-26T04:11:55.062Z,1021.6
2023-02-26T04:13:55.051Z,1021.6
2023-02-26T04:15:55.039Z,1021.7
2023-02-26T04:17:55.088Z,1021.7
2023-02-26T04:19:55.007Z,1021.7
2023-02-26T04:21:55.064Z,1021.7
2023-02-26T04:23:55.000Z,1021.7
2023-02-26T04:25:55.058Z,1021.7
2023-02-26T04:27:55.127Z,1021.6
2023-02-26T04:29:56.332Z,1021.6
2023-02-26T04:31:55.069Z,1021.6
2023-02-26T04:33:54.965Z,1021.6
2023-02-26T04:35:55.039Z,1021.6
2023-02-26T04:37:56.090Z,1021.6
2023-02-26T04:39:55.068Z,1021.5
2023-02-26T04:41:54.978Z,1021.5
2023-02-26T04:43:54.958Z,1021.4
2023-02-26T04:45:55.010Z,1021.4
2023-02-26T04:47:55.010Z,1021.4
2023-02-26T04:49:55.014Z,1021.3
2023-02-26T04:51:54.965Z,1021.3
2023-02-26T04:53:54.995Z,1021.3
2023-02-26T04:55:54.956Z,1021.3
2023-02-26T04:57:54.942Z,1021.3
2023-02-26T04:59:54.921Z,1021.4
2023-02-26T05:01:54.973Z,1021.4
2023-02-26T05:03:55.024Z,1021.3
2023-02-26T05:05:55.005Z,1021.3
2023-02-26T05:07:54.950Z,1021.3
2023-02-26T05:09:54.937Z,1021.4
2023-02-26T05:11:54.957Z,1021.4
2023-02-26T05:13:54.926Z,1021.3
2023-02-26T05:15:55.096Z,1021.3
2023-02-26T05:17:54.917Z,1021.3
2023-02-26T05:19:54.908Z,1021.3
2023-02-26T05:21:54.984Z,1021.2
2023-02-26T05:23:54.948Z,1021.3
2023-02-26T05:25:54.920Z,1021.3
2023-02-26T05:27:54.934Z,1021.3
2023-02-26T05:29:54.911Z,1021.2
2023-02-26T05:31:54.963Z,1021.3
2023-02-26T05:33:55.043Z,1021.2
2023-02-26T05:35:54.946Z,1021.3
2023-02-26T05:37:54.927Z,1021.3
2023-02-26T05:39:54.913Z,1021.4
2023-02-26T05:41:54.917Z,1021.4
2023-02-26T05:43:54.924Z,1021.4
2023-02-26T05:45:54.879Z,1021.4
2023-02-26T05:47:54.868Z,1021.4
2023-02-26T05:49:54.867Z,1021.5
2023-02-26T05:51:54.923Z,1021.5
2023-02-26T05:53:54.908Z,1021.5
2023-02-26T05:55:54.839Z,1021.5
2023-02-26T05:57:54.851Z,1021.4
2023-02-26T05:59:57.474Z,1021.5
2023-02-26T06:01:56.522Z,1021.5
2023-02-26T06:03:54.852Z,1021.6
2023-02-26T06:05:54.840Z,1021.5
2023-02-26T06:07:54.879Z,1021.5
2023-02-26T06:09:54.833Z,1021.5
2023-02-26T06:11:54.869Z,1021.5
2023-02-26T06:13:54.857Z,1021.5
2023-02-26T06:15:54.919Z,1021.5
2023-02-26T06:17:56.175Z,1021.5
2023-02-26T06:19:54.806Z,1021.5
2023-02-26T06:21:54.832Z,1021.5
2023-02-26T06:23:54.855Z,1021.5
2023-02-26T06:25:54.856Z,1021.4
2023-02-26T06:27:54.881Z,1021.4
2023-02-26T06:29:54.849Z,1021.4
2023-02-26T06:31:55.046Z,1021.4
2023-02-26T06:33:57.335Z,1021.3
2023-02-26T06:35:54.797Z,1021.3
2023-02-26T06:37:54.812Z,1021.3
2023-02-26T06:39:54.834Z,1021.2
2023-02-26T06:41:54.871Z,1021.1
2023-02-26T06:43:54.832Z,1021.1
2023-02-26T06:45:54.984Z,1021.1
2023-02-26T06:47:54.889Z,1021.1
2023-02-26T06:49:54.804Z,1021.1
2023-02-26T06:51:54.830Z,1021.1
2023-02-26T06:53:54.847Z,1021.1
2023-02-26T06:55:55.757Z,1021
2023-02-26T06:57:54.810Z,1021
2023-02-26T06:59:54.812Z,1020.9
2023-02-26T07:01:54.887Z,1020.9
2023-02-26T07:03:54.845Z,1020.9
2023-02-26T07:05:54.768Z,1020.9
2023-02-26T07:07:54.769Z,1020.8
2023-02-26T07:09:54.767Z,1020.8
2023-02-26T07:11:54.750Z,1020.8
2023-02-26T07:13:54.792Z,1020.8
2023-02-26T07:15:54.792Z,1020.8
2023-02-26T07:17:54.814Z,1020.7
2023-02-26T07:19:54.766Z,1020.7
2023-02-26T07:21:54.789Z,1020.7
2023-02-26T07:23:54.758Z,1020.7
2023-02-26T07:25:54.763Z,1020.7
2023-02-26T07:27:54.787Z,1020.7
2023-02-26T07:29:54.807Z,1020.7
2023-02-26T07:31:54.843Z,1020.6
2023-02-26T07:33:54.788Z,1020.6
2023-02-26T07:35:54.798Z,1020.5
2023-02-26T07:37:54.869Z,1020.5
2023-02-26T07:39:54.762Z,1020.5
2023-02-26T07:41:54.799Z,1020.5
2023-02-26T07:43:54.863Z,1020.6
2023-02-26T07:45:54.781Z,1020.6
2023-02-26T07:47:55.023Z,1020.6
2023-02-26T07:49:54.702Z,1020.6
2023-02-26T07:51:54.744Z,1020.6
2023-02-26T07:53:54.720Z,1020.7
2023-02-26T07:55:54.697Z,1020.6
2023-02-26T07:57:54.715Z,1020.6
2023-02-26T07:59:54.733Z,1020.6
2023-02-26T08:01:54.816Z,1020.6
2023-02-26T08:03:54.703Z,1020.6
2023-02-26T08:05:54.687Z,1020.5
2023-02-26T08:07:54.792Z,1020.5
2023-02-26T08:09:54.763Z,1020.5
2023-02-26T08:11:54.719Z,1020.5
2023-02-26T08:13:54.810Z,1020.5
2023-02-26T08:15:54.949Z,1020.5
2023-02-26T08:17:54.700Z,1020.5
2023-02-26T08:19:54.711Z,1020.4
2023-02-26T08:21:54.725Z,1020.4
2023-02-26T08:23:54.678Z,1020.4
2023-02-26T08:25:54.704Z,1020.4
2023-02-26T08:27:54.691Z,1020.5
2023-02-26T08:29:54.678Z,1020.4
2023-02-26T08:31:54.803Z,1020.4
2023-02-26T08:33:54.654Z,1020.4
2023-02-26T08:35:54.649Z,1020.4
2023-02-26T08:37:54.668Z,1020.4
2023-02-26T08:39:54.728Z,1020.5
2023-02-26T08:41:54.787Z,1020.5
2023-02-26T08:43:54.705Z,1020.5
2023-02-26T08:45:54.635Z,1020.6
2023-02-26T08:47:56.916Z,1020.6
2023-02-26T08:49:54.651Z,1020.5
2023-02-26T08:51:54.671Z,1020.6
2023-02-26T08:53:54.660Z,1020.5
2023-02-26T08:55:54.712Z,1020.5
2023-02-26T08:57:55.842Z,1020.5
2023-02-26T08:59:54.778Z,1020.5
2023-02-26T09:01:54.744Z,1020.5
2023-02-26T09:03:54.615Z,1020.5
2023-02-26T09:05:54.634Z,1020.5
2023-02-26T09:07:54.813Z,1020.5
2023-02-26T09:09:54.617Z,1020.5
2023-02-26T09:11:54.777Z,1020.5
2023-02-26T09:13:54.669Z,1020.5
2023-02-26T09:15:54.706Z,1020.6
2023-02-26T09:17:55.823Z,1020.5
2023-02-26T09:19:55.803Z,1020.5
2023-02-26T09:21:54.608Z,1020.5
2023-02-26T09:23:54.611Z,1020.5
2023-02-26T09:25:54.557Z,1020.4
2023-02-26T09:27:55.012Z,1020.4
2023-02-26T09:29:55.908Z,1020.4
2023-02-26T09:31:54.669Z,1020.4
2023-02-26T09:33:54.684Z,1020.4
2023-02-26T09:35:54.603Z,1020.4
2023-02-26T09:37:54.644Z,1020.4
2023-02-26T09:39:55.050Z,1020.4
2023-02-26T09:41:54.611Z,1020.5
2023-02-26T09:43:54.668Z,1020.5
2023-02-26T09:45:54.635Z,1020.5
2023-02-26T09:47:54.595Z,1020.5
2023-02-26T09:49:54.817Z,1020.5
2023-02-26T09:51:54.654Z,1020.5
2023-02-26T09:53:54.581Z,1020.5
2023-02-26T09:55:54.637Z,1020.5
2023-02-26T09:57:54.681Z,1020.5
2023-02-26T09:59:54.662Z,1020.5
2023-02-26T10:01:54.786Z,1020.5
2023-02-26T10:03:54.665Z,1020.5
2023-02-26T10:05:54.596Z,1020.5
2023-02-26T10:07:54.660Z,1020.5
2023-02-26T10:09:54.560Z,1020.5
2023-02-26T10:11:54.580Z,1020.5
2023-02-26T10:13:58.076Z,1020.6
2023-02-26T10:15:54.552Z,1020.6
2023-02-26T10:17:55.557Z,1020.5
2023-02-26T10:19:54.535Z,1020.5
2023-02-26T10:21:55.745Z,1020.5
2023-02-26T10:23:54.581Z,1020.5
2023-02-26T10:25:54.557Z,1020.5
2023-02-26T10:27:54.602Z,1020.5
2023-02-26T10:29:54.534Z,1020.5
2023-02-26T10:31:54.655Z,1020.4
2023-02-26T10:33:54.511Z,1020.4
2023-02-26T10:35:54.613Z,1020.3
2023-02-26T10:37:54.585Z,1020.3
2023-02-26T10:39:54.522Z,1020.3
2023-02-26T10:41:54.536Z,1020.3
2023-02-26T10:43:54.510Z,1020.3
2023-02-26T10:45:54.589Z,1020.3
2023-02-26T10:47:54.501Z,1020.3
2023-02-26T10:49:54.521Z,1020.3
2023-02-26T10:51:54.521Z,1020.3
2023-02-26T10:53:55.712Z,1020.2
2023-02-26T10:55:54.552Z,1020.2
2023-02-26T10:57:54.482Z,1020.2
2023-02-26T10:59:54.474Z,1020.2
2023-02-26T11:01:54.509Z,1020.3
2023-02-26T11:03:54.562Z,1020.3
2023-02-26T11:05:54.524Z,1020.3
2023-02-26T11:07:54.771Z,1020.2
2023-02-26T11:09:54.427Z,1020.2
2023-02-26T11:11:54.475Z,1020.2
2023-02-26T11:13:54.486Z,1020.2
2023-02-26T11:15:54.566Z,1020.1
2023-02-26T11:17:54.656Z,1020.1
2023-02-26T11:19:54.517Z,1020.2
2023-02-26T11:21:57.062Z,1020.3
2023-02-26T11:23:55.615Z,1020.3
2023-02-26T11:25:54.643Z,1020.3
2023-02-26T11:27:55.627Z,1020.4
2023-02-26T11:29:54.494Z,1020.4
2023-02-26T11:31:54.858Z,1020.3
2023-02-26T11:33:54.686Z,1020.3
2023-02-26T11:35:54.459Z,1020.3
2023-02-26T11:37:54.527Z,1020.3
2023-02-26T11:38:26.177Z,1020.3
2023-02-26T11:39:56.661Z,1020.3
2023-02-26T11:41:54.587Z,1020.2
2023-02-26T11:43:54.466Z,1020.2
2023-02-26T11:45:55.889Z,1020.3
2023-02-26T11:47:56.381Z,1020.3
2023-02-26T11:50:01.783Z,1020.3
2023-02-26T11:51:55.643Z,1020.3
2023-02-26T11:53:54.498Z,1020.3
2023-02-26T11:55:54.537Z,1020.4
2023-02-26T11:57:54.553Z,1020.4
2023-02-26T11:59:54.508Z,1020.4
2023-02-26T12:01:55.878Z,1020.4
2023-02-26T12:03:25.734Z,1020.4
2023-02-26T12:03:58.841Z,1020.4
2023-02-26T12:05:55.671Z,1020.4
2023-02-26T12:07:54.614Z,1020.4
2023-02-26T12:09:56.416Z,1020.4
2023-02-26T12:11:54.504Z,1020.4
2023-02-26T12:13:55.986Z,1020.5
2023-02-26T12:15:54.540Z,1020.4
2023-02-26T12:17:54.477Z,1020.5
2023-02-26T12:19:55.997Z,1020.5
2023-02-26T12:21:54.533Z,1020.5
2023-02-26T12:23:54.656Z,1020.6
2023-02-26T12:25:54.564Z,1020.6
2023-02-26T12:27:54.472Z,1020.6
2023-02-26T12:30:00.320Z,1020.6
2023-02-26T12:31:54.644Z,1020.7
2023-02-26T12:33:58.898Z,1020.7
2023-02-26T12:35:54.467Z,1020.7
2023-02-26T12:37:54.492Z,1020.7
2023-02-26T12:39:55.496Z,1020.7
2023-02-26T12:41:54.400Z,1020.8
2023-02-26T12:43:54.531Z,1020.8
2023-02-26T12:45:58.810Z,1020.8
2023-02-26T12:47:55.482Z,1020.9
2023-02-26T12:49:54.346Z,1020.9
2023-02-26T12:51:54.438Z,1020.9
2023-02-26T12:53:55.716Z,1021
2023-02-26T12:55:56.062Z,1021.1
2023-02-26T12:57:54.569Z,1021.1
2023-02-26T13:00:05.236Z,1021.2
2023-02-26T13:02:01.213Z,1021.2
2023-02-26T13:03:54.588Z,1021.2
2023-02-26T13:05:56.987Z,1021.2
2023-02-26T13:07:55.976Z,1021.2
2023-02-26T13:09:54.364Z,1021.1
2023-02-26T13:11:55.529Z,1021.1
2023-02-26T13:13:54.615Z,1021.1
2023-02-26T13:15:54.611Z,1021.1
2023-02-26T13:17:58.385Z,1021
2023-02-26T13:19:55.347Z,1021
2023-02-26T13:21:54.693Z,1021
2023-02-26T13:23:54.647Z,1021
2023-02-26T13:25:55.671Z,1021
2023-02-26T13:27:55.510Z,1021
2023-02-26T13:29:54.461Z,1021
2023-02-26T13:32:18.782Z,1020.9
2023-02-26T13:34:27.879Z,1020.9
2023-02-26T13:35:56.880Z,1020.9
2023-02-26T13:37:54.331Z,1020.9
2023-02-26T13:39:04.208Z,1020.9
2023-02-26T13:40:34.960Z,1020.8
2023-02-26T13:42:34.992Z,1020.8
2023-02-26T13:44:34.938Z,1020.8
2023-02-26T13:46:34.982Z,1020.8
2023-02-26T13:48:34.928Z,1020.8
2023-02-26T13:50:34.936Z,1020.7
2023-02-26T13:52:34.949Z,1020.7
2023-02-26T13:54:34.957Z,1020.7
2023-02-26T13:56:34.952Z,1020.7
2023-02-26T13:58:34.932Z,1020.7
2023-02-26T14:00:36.344Z,1020.8
2023-02-26T14:02:34.915Z,1020.8
2023-02-26T14:04:34.951Z,1020.7
2023-02-26T14:06:34.905Z,1020.7
2023-02-26T14:08:34.931Z,1020.6
2023-02-26T14:10:34.962Z,1020.6
2023-02-26T14:12:34.981Z,1020.6
2023-02-26T14:14:34.938Z,1020.6
2023-02-26T14:16:34.999Z,1020.6
2023-02-26T14:18:34.919Z,1020.6
2023-02-26T14:20:34.920Z,1020.7
2023-02-26T14:22:34.910Z,1020.7
2023-02-26T14:24:34.910Z,1020.7
2023-02-26T14:26:34.890Z,1020.7
2023-02-26T14:28:35.064Z,1020.7
2023-02-26T14:30:35.023Z,1020.7
2023-02-26T14:32:35.122Z,1020.7
2023-02-26T14:34:35.005Z,1020.7
2023-02-26T14:36:34.898Z,1020.7
2023-02-26T14:38:34.915Z,1020.8
2023-02-26T14:40:34.894Z,1020.8
2023-02-26T14:42:34.900Z,1020.7
2023-02-26T14:44:36.121Z,1020.7
2023-02-26T14:46:34.860Z,1020.8
2023-02-26T14:48:34.842Z,1020.7
2023-02-26T14:50:34.884Z,1020.7
2023-02-26T14:52:34.929Z,1020.6
2023-02-26T14:54:34.904Z,1020.6
2023-02-26T14:56:34.850Z,1020.5
2023-02-26T14:58:34.861Z,1020.5
2023-02-26T15:00:34.875Z,1020.4
2023-02-26T15:02:34.865Z,1020.4
2023-02-26T15:04:34.879Z,1020.4
2023-02-26T15:06:34.871Z,1020.4
2023-02-26T15:08:34.975Z,1020.4
2023-02-26T15:10:34.855Z,1020.4
2023-02-26T15:12:34.880Z,1020.4
2023-02-26T15:14:34.867Z,1020.4
2023-02-26T15:16:34.841Z,1020.5
2023-02-26T15:18:34.829Z,1020.5
2023-02-26T15:20:34.912Z,1020.4
2023-02-26T15:22:34.823Z,1020.4
2023-02-26T15:24:34.828Z,1020.4
2023-02-26T15:26:34.858Z,1020.4
2023-02-26T15:28:36.142Z,1020.3
2023-02-26T15:30:35.958Z,1020.2
2023-02-26T15:32:36.809Z,1020.1
2023-02-26T15:34:35.201Z,1020.2
2023-02-26T15:36:34.847Z,1020
2023-02-26T15:38:34.863Z,1020
2023-02-26T15:40:36.064Z,1020
2023-02-26T15:42:37.329Z,1020.1
2023-02-26T15:44:37.101Z,1020.1
2023-02-26T15:46:34.850Z,1020
2023-02-26T15:48:34.828Z,1020.1
2023-02-26T15:50:34.826Z,1020.1
2023-02-26T15:52:34.834Z,1020.1
2023-02-26T15:54:34.960Z,1020.1
2023-02-26T15:56:34.816Z,1019.9
2023-02-26T15:58:34.832Z,1019.9
2023-02-26T16:00:38.138Z,1019.9
2023-02-26T16:02:34.791Z,1019.9
2023-02-26T16:04:36.004Z,1019.9
2023-02-26T16:06:34.750Z,1019.9
2023-02-26T16:08:34.833Z,1019.8
2023-02-26T16:10:34.781Z,1019.9
2023-02-26T16:12:34.777Z,1019.8
2023-02-26T16:14:34.832Z,1019.8
2023-02-26T16:16:34.887Z,1019.7
2023-02-26T16:18:34.849Z,1019.7
2023-02-26T16:20:34.803Z,1019.6
2023-02-26T16:22:34.783Z,1019.5
2023-02-26T16:24:35.082Z,1019.4
2023-02-26T16:26:34.817Z,1019.3
2023-02-26T16:28:34.778Z,1019.3
2023-02-26T16:30:34.786Z,1019.2
2023-02-26T16:32:34.876Z,1019.2
2023-02-26T16:34:37.131Z,1019.2
2023-02-26T16:36:34.889Z,1019.1
2023-02-26T16:38:34.801Z,1019
2023-02-26T16:40:34.995Z,1019
2023-02-26T16:42:34.738Z,1018.9
2023-02-26T16:44:34.820Z,1018.8
2023-02-26T16:46:34.770Z,1018.8
2023-02-26T16:48:34.758Z,1018.7
2023-02-26T16:50:34.706Z,1018.7
2023-02-26T16:52:34.796Z,1018.7
2023-02-26T16:54:34.733Z,1018.7
2023-02-26T16:56:34.731Z,1018.7
2023-02-26T16:58:34.831Z,1018.6
2023-02-26T17:00:34.784Z,1018.6
2023-02-26T17:02:36.120Z,1018.5
2023-02-26T17:04:34.749Z,1018.4
2023-02-26T17:06:34.801Z,1018.4
2023-02-26T17:08:35.864Z,1018.5
2023-02-26T17:10:34.906Z,1018.4
2023-02-26T17:12:34.873Z,1018.3
2023-02-26T17:14:34.717Z,1018.2
2023-02-26T17:16:34.814Z,1018.1
2023-02-26T17:18:34.726Z,1018.1
2023-02-26T17:20:34.688Z,1018.1
2023-02-26T17:22:34.768Z,1018.1
2023-02-26T17:24:34.705Z,1018
2023-02-26T17:26:34.662Z,1017.9
2023-02-26T17:28:34.693Z,1017.7
2023-02-26T17:30:34.742Z,1017.6
2023-02-26T17:32:34.816Z,1017.6
2023-02-26T17:34:34.663Z,1017.6
2023-02-26T17:36:34.665Z,1017.5
2023-02-26T17:38:34.644Z,1017.6
2023-02-26T17:40:34.659Z,1017.5
2023-02-26T17:42:34.661Z,1017.5
2023-02-26T17:44:34.706Z,1017.5
2023-02-26T17:46:34.662Z,1017.4
2023-02-26T17:48:34.682Z,1017.3
2023-02-26T17:50:34.619Z,1017.2
2023-02-26T17:52:34.728Z,1017.2
2023-02-26T17:54:34.632Z,1017.1
2023-02-26T17:56:34.655Z,1017.1
2023-02-26T17:58:34.728Z,1017
2023-02-26T18:00:34.638Z,1017
2023-02-26T18:04:03.529Z,1016.9
2023-02-26T18:04:39.733Z,1016.9
2023-02-26T18:06:39.637Z,1016.8
2023-02-26T18:08:39.493Z,1016.8
2023-02-26T18:10:39.533Z,1016.8
2023-02-26T18:12:39.575Z,1016.7
2023-02-26T18:14:39.622Z,1016.6
2023-02-26T18:16:40.176Z,1016.6
2023-02-26T18:18:39.580Z,1016.6
2023-02-26T18:20:39.628Z,1016.5
2023-02-26T18:22:39.528Z,1016.4
2023-02-26T18:24:39.523Z,1016.4
2023-02-26T18:26:39.585Z,1016.4
2023-02-26T18:28:39.536Z,1016.3
2023-02-26T18:30:39.676Z,1016.3
2023-02-26T18:32:39.555Z,1016.2
2023-02-26T18:34:39.604Z,1016.2
2023-02-26T18:36:39.559Z,1016.2
2023-02-26T18:38:42.388Z,1016.1
2023-02-26T18:40:39.587Z,1016.1
2023-02-26T18:42:39.531Z,1016
2023-02-26T18:44:39.577Z,1016
2023-02-26T18:46:39.680Z,1016
2023-02-26T18:48:39.583Z,1016
2023-02-26T18:50:39.540Z,1015.9
2023-02-26T18:52:39.524Z,1015.9
2023-02-26T18:54:39.537Z,1015.9
2023-02-26T18:56:39.490Z,1015.9
2023-02-26T18:58:40.492Z,1015.9
2023-02-26T19:00:39.523Z,1015.9
2023-02-26T19:02:39.674Z,1015.8
2023-02-26T19:04:39.528Z,1015.8
2023-02-26T19:06:39.481Z,1015.7
2023-02-26T19:08:39.516Z,1015.7
2023-02-26T19:10:39.446Z,1015.6
2023-02-26T19:12:39.524Z,1015.5
2023-02-26T19:14:39.473Z,1015.5
2023-02-26T19:16:39.478Z,1015.4
2023-02-26T19:18:39.540Z,1015.3
2023-02-26T19:20:39.501Z,1015.2
2023-02-26T19:22:39.510Z,1015.2
2023-02-26T19:24:39.476Z,1015.3
2023-02-26T19:26:39.474Z,1015.3
2023-02-26T19:28:40.548Z,1015.2
2023-02-26T19:30:39.448Z,1015.1
2023-02-26T19:32:39.580Z,1015
2023-02-26T19:34:39.479Z,1014.9
2023-02-26T19:36:39.430Z,1014.9
2023-02-26T19:38:39.449Z,1014.8
2023-02-26T19:40:39.463Z,1014.7
2023-02-26T19:42:39.436Z,1014.7
2023-02-26T19:44:39.478Z,1014.7
2023-02-26T19:46:39.530Z,1014.6
2023-02-26T19:48:39.510Z,1014.5
2023-02-26T19:50:40.581Z,1014.4
2023-02-26T19:52:39.435Z,1014.4
2023-02-26T19:54:39.447Z,1014.4
2023-02-26T19:56:39.452Z,1014.3
2023-02-26T19:58:39.441Z,1014.3
2023-02-26T20:00:39.404Z,1014.3
2023-02-26T20:02:39.586Z,1014.2
2023-02-26T20:04:39.491Z,1014.2
2023-02-26T20:06:39.427Z,1014.2
2023-02-26T20:08:39.456Z,1014.2
2023-02-26T20:10:39.356Z,1014.2
2023-02-26T20:12:39.530Z,1014.2
2023-02-26T20:14:39.436Z,1014.3
2023-02-26T20:16:39.434Z,1014.3
2023-02-26T20:18:39.431Z,1014.2
2023-02-26T20:20:53.389Z,1014.2
2023-02-26T20:22:39.446Z,1014.2
2023-02-26T20:24:40.454Z,1014.2
2023-02-26T20:26:39.389Z,1014.2
2023-02-26T20:28:54.483Z,1014.2
2023-02-26T20:30:40.843Z,1014.1
2023-02-26T20:32:39.608Z,1014.1
2023-02-26T20:34:39.505Z,1014.2
2023-02-26T20:36:39.521Z,1014.3
2023-02-26T20:38:39.436Z,1014.2
2023-02-26T20:40:39.462Z,1014.1
2023-02-26T20:42:39.376Z,1014.2
2023-02-26T20:44:39.375Z,1014.2
2023-02-26T20:46:39.494Z,1014.1
2023-02-26T20:48:39.358Z,1014.1
2023-02-26T20:50:39.407Z,1014
2023-02-26T20:52:39.444Z,1013.9
2023-02-26T20:54:39.379Z,1014
2023-02-26T20:56:39.381Z,1013.9
2023-02-26T20:58:39.416Z,1013.9
2023-02-26T21:00:39.490Z,1013.8
2023-02-26T21:02:39.389Z,1013.7
2023-02-26T21:04:39.421Z,1013.7
2023-02-26T21:06:39.366Z,1013.8
2023-02-26T21:08:39.364Z,1013.7
2023-02-26T21:10:39.384Z,1013.6
2023-02-26T21:12:39.408Z,1013.5
2023-02-26T21:14:39.383Z,1013.4
2023-02-26T21:16:40.673Z,1013.4
2023-02-26T21:18:39.334Z,1013.5
2023-02-26T21:20:39.385Z,1013.4
2023-02-26T21:22:39.407Z,1013.3
2023-02-26T21:24:40.678Z,1013.3
2023-02-26T21:26:40.799Z,1013.3
2023-02-26T21:28:39.361Z,1013.4
2023-02-26T21:30:39.383Z,1013.3
2023-02-26T21:32:39.660Z,1013.4
2023-02-26T21:34:39.303Z,1013.3
2023-02-26T21:36:39.331Z,1013.3
2023-02-26T21:38:39.306Z,1013.4
2023-02-26T21:40:39.394Z,1013.4
2023-02-26T21:42:40.713Z,1013.4
2023-02-26T21:44:40.389Z,1013.4
2023-02-26T21:46:39.326Z,1013.5
2023-02-26T21:48:39.360Z,1013.5
2023-02-26T21:50:39.431Z,1013.6
2023-02-26T21:52:39.328Z,1013.6
2023-02-26T21:54:43.635Z,1013.7
2023-02-26T21:56:40.730Z,1013.7
2023-02-26T21:58:23.333Z,1013.7
2023-02-26T21:58:46.367Z,1013.8
2023-02-26T22:00:40.548Z,1013.7
2023-02-26T22:02:39.350Z,1013.7
2023-02-26T22:04:39.361Z,1013.7
2023-02-26T22:06:39.285Z,1013.6
2023-02-26T22:08:39.293Z,1013.6
2023-02-26T22:10:39.372Z,1013.6
2023-02-26T22:12:39.338Z,1013.6
2023-02-26T22:14:39.259Z,1013.6
2023-02-26T22:16:39.319Z,1013.6
2023-02-26T22:18:39.277Z,1013.6
2023-02-26T22:20:39.245Z,1013.6
2023-02-26T22:22:39.241Z,1013.6
2023-02-26T22:24:39.249Z,1013.6
2023-02-26T22:26:39.283Z,1013.6
2023-02-26T22:28:39.300Z,1013.6
2023-02-26T22:30:39.319Z,1013.6
2023-02-26T22:32:39.377Z,1013.6
2023-02-26T22:34:39.361Z,1013.6
2023-02-26T22:36:39.342Z,1013.6
2023-02-26T22:38:39.308Z,1013.7
2023-02-26T22:40:40.518Z,1013.7
2023-02-26T22:42:40.619Z,1013.7
2023-02-26T22:44:39.261Z,1013.8
2023-02-26T22:46:39.248Z,1013.8
2023-02-26T22:48:39.260Z,1013.8
2023-02-26T22:50:39.294Z,1013.8
2023-02-26T22:52:39.328Z,1013.8
2023-02-26T22:54:41.726Z,1013.7
2023-02-26T22:56:39.297Z,1013.7
2023-02-26T22:58:39.210Z,1013.7
2023-02-26T23:00:39.317Z,1013.7
2023-02-26T23:02:39.278Z,1013.7
2023-02-26T23:04:39.295Z,1013.7
2023-02-26T23:06:39.350Z,1013.7
2023-02-26T23:08:39.331Z,1013.7
2023-02-26T23:10:39.304Z,1013.7
2023-02-26T23:12:39.362Z,1013.8
2023-02-26T23:14:39.182Z,1013.9
2023-02-26T23:16:39.279Z,1013.9
2023-02-26T23:18:39.256Z,1014
2023-02-26T23:20:39.176Z,1014
2023-02-26T23:22:39.171Z,1014
2023-02-26T23:24:39.245Z,1014
2023-02-26T23:26:39.208Z,1014
2023-02-26T23:28:40.673Z,1014
2023-02-26T23:30:39.367Z,1014
2023-02-26T23:32:39.334Z,1013.9
2023-02-26T23:34:39.167Z,1014
2023-02-26T23:36:39.161Z,1013.9
2023-02-26T23:38:39.149Z,1013.9
2023-02-26T23:40:39.185Z,1013.9
2023-02-26T23:42:39.191Z,1014
2023-02-26T23:44:39.151Z,1014
2023-02-26T23:46:39.232Z,1014.1
2023-02-26T23:48:39.192Z,1014.1
2023-02-26T23:50:39.166Z,1014.1
2023-02-26T23:52:39.154Z,1014.1
2023-02-26T23:54:39.223Z,1014.2
2023-02-26T23:56:39.126Z,1014.2
2023-02-26T23:58:39.142Z,1014.2
